createdAt,value
2023-03-02T00:01:04.450Z,-2.33
2023-03-02T00:03:31.942Z,-2.38
2023-03-02T00:05:58.420Z,-2.43
2023-03-02T00:08:24.898Z,-2.46
2023-03-02T00:10:51.379Z,-2.53
2023-03-02T00:13:17.842Z,-2.60
2023-03-02T00:15:44.325Z,-2.61
2023-03-02T00:18:10.850Z,-2.61
2023-03-02T00:20:37.376Z,-2.59
2023-03-02T00:23:03.812Z,-2.58
2023-03-02T00:25:52.283Z,-2.57
2023-03-02T00:28:18.789Z,-2.55
2023-03-02T00:30:45.227Z,-2.52
2023-03-02T00:33:11.718Z,-2.54
2023-03-02T00:35:41.427Z,-2.57
2023-03-02T00:38:08.307Z,-2.60
2023-03-02T00:40:35.155Z,-2.65
2023-03-02T00:43:01.629Z,-2.66
2023-03-02T00:45:28.072Z,-2.65
2023-03-02T00:47:54.570Z,-2.70
2023-03-02T00:50:21.029Z,-2.77
2023-03-02T00:52:47.476Z,-2.82
2023-03-02T00:55:13.994Z,-2.87
2023-03-02T00:57:40.461Z,-2.91
2023-03-02T01:00:07.231Z,-2.96
2023-03-02T01:02:33.822Z,-2.98
2023-03-02T01:05:00.325Z,-2.97
2023-03-02T01:07:28.572Z,-3.75
2023-03-02T01:09:55.201Z,-2.96
2023-03-02T01:12:21.679Z,-2.96
2023-03-02T01:14:48.402Z,-2.94
2023-03-02T01:17:14.889Z,-2.93
2023-03-02T01:19:41.489Z,-2.95
2023-03-02T01:22:08.053Z,-2.95
2023-03-02T01:24:34.527Z,-2.98
2023-03-02T01:27:01.011Z,-3.00
2023-03-02T01:29:27.475Z,-3.05
2023-03-02T01:31:54.321Z,-3.11
2023-03-02T01:34:20.941Z,-3.16
2023-03-02T01:36:47.417Z,-3.18
2023-03-02T01:39:16.961Z,-3.19
2023-03-02T01:41:43.948Z,-3.17
2023-03-02T01:44:29.227Z,-3.15
2023-03-02T01:46:55.684Z,-3.16
2023-03-02T01:49:22.421Z,-3.14
2023-03-02T01:51:48.975Z,-3.15
2023-03-02T01:54:17.382Z,-3.15
2023-03-02T01:56:44.232Z,-3.16
2023-03-02T01:59:12.054Z,-3.16
2023-03-02T02:01:39.733Z,-3.24
2023-03-02T02:04:06.202Z,-3.33
2023-03-02T02:06:35.175Z,-3.40
2023-03-02T02:09:01.776Z,-3.46
2023-03-02T02:11:28.248Z,-3.51
2023-03-02T02:13:55.954Z,-3.54
2023-03-02T02:16:22.426Z,-3.52
2023-03-02T02:18:48.948Z,-3.49
2023-03-02T02:21:15.404Z,-3.46
2023-03-02T02:24:00.659Z,-3.42
2023-03-02T02:26:47.423Z,-3.43
2023-03-02T02:29:14.867Z,-3.40
2023-03-02T02:31:48.618Z,-3.38
2023-03-02T02:34:16.621Z,-3.37
2023-03-02T02:36:44.049Z,-3.35
2023-03-02T02:39:11.880Z,-3.35
2023-03-02T02:41:38.561Z,-3.35
2023-03-02T02:44:05.133Z,-3.39
2023-03-02T02:46:31.922Z,-3.43
2023-03-02T02:48:58.502Z,-3.46
2023-03-02T02:51:26.523Z,-3.46
2023-03-02T02:54:00.142Z,-3.49
2023-03-02T02:56:33.963Z,-3.50
2023-03-02T02:59:07.996Z,-3.54
2023-03-02T03:01:34.550Z,-3.55
2023-03-02T03:04:01.992Z,-3.59
2023-03-02T03:06:30.689Z,-3.64
2023-03-02T03:08:58.268Z,-3.67
2023-03-02T03:11:26.702Z,-3.70
2023-03-02T03:13:58.453Z,-3.73
2023-03-02T03:16:25.005Z,-3.80
2023-03-02T03:18:51.499Z,-3.83
2023-03-02T03:21:18.497Z,-3.85
2023-03-02T03:23:45.123Z,-3.83
2023-03-02T03:26:11.594Z,-3.81
2023-03-02T03:28:38.093Z,-3.86
2023-03-02T03:31:04.690Z,-3.89
2023-03-02T03:33:31.229Z,-3.93
2023-03-02T03:35:57.836Z,-3.96
2023-03-02T03:38:24.525Z,-3.96
2023-03-02T03:40:50.966Z,-3.95
2023-03-02T03:43:17.446Z,-3.93
2023-03-02T03:45:43.877Z,-3.92
2023-03-02T03:48:10.316Z,-3.95
2023-03-02T03:50:36.793Z,-3.97
2023-03-02T03:53:03.980Z,-3.98
2023-03-02T03:55:31.250Z,-3.94
2023-03-02T03:57:57.813Z,-3.91
2023-03-02T04:00:24.346Z,-3.90
2023-03-02T04:02:50.980Z,-3.88
2023-03-02T04:05:17.597Z,-3.85
2023-03-02T04:07:44.087Z,-3.82
2023-03-02T04:10:11.395Z,-3.81
2023-03-02T04:12:38.408Z,-3.82
2023-03-02T04:15:05.680Z,-3.84
2023-03-02T04:17:32.171Z,-3.86
2023-03-02T04:19:59.595Z,-3.88
2023-03-02T04:22:26.406Z,-3.90
2023-03-02T04:24:52.905Z,-3.90
2023-03-02T04:27:19.432Z,-3.93
2023-03-02T04:29:46.362Z,-3.93
2023-03-02T04:32:14.894Z,-3.93
2023-03-02T04:34:41.717Z,-3.96
2023-03-02T04:37:08.186Z,-3.98
2023-03-02T04:39:34.707Z,-3.98
2023-03-02T04:42:01.304Z,-4.01
2023-03-02T04:44:27.779Z,-4.08
2023-03-02T04:46:54.339Z,-4.09
2023-03-02T04:49:20.852Z,-4.13
2023-03-02T04:51:47.947Z,-4.20
2023-03-02T04:54:15.613Z,-4.27
2023-03-02T04:56:42.202Z,-4.33
2023-03-02T04:59:08.694Z,-4.35
2023-03-02T05:01:35.222Z,-4.35
2023-03-02T05:04:03.019Z,-4.35
2023-03-02T05:06:29.733Z,-4.33
2023-03-02T05:08:59.847Z,-4.29
2023-03-02T05:11:26.380Z,-4.26
2023-03-02T05:13:53.735Z,-4.23
2023-03-02T05:16:20.434Z,-4.24
2023-03-02T05:18:47.174Z,-4.27
2023-03-02T05:21:14.543Z,-4.30
2023-03-02T05:23:41.328Z,-4.37
2023-03-02T05:26:07.874Z,-4.42
2023-03-02T05:28:34.385Z,-4.44
2023-03-02T05:31:01.110Z,-4.43
2023-03-02T05:33:27.750Z,-4.39
2023-03-02T05:35:54.295Z,-4.39
2023-03-02T05:38:21.103Z,-4.38
2023-03-02T05:40:47.741Z,-4.34
2023-03-02T05:43:15.768Z,-4.29
2023-03-02T05:45:42.420Z,-4.26
2023-03-02T05:48:08.946Z,-4.26
2023-03-02T05:50:35.525Z,-4.24
2023-03-02T05:53:02.646Z,-4.22
2023-03-02T05:55:29.252Z,-4.19
2023-03-02T05:57:55.771Z,-4.16
2023-03-02T06:00:22.418Z,-4.12
2023-03-02T06:02:49.101Z,-4.10
2023-03-02T06:05:16.670Z,-4.08
2023-03-02T06:07:43.124Z,-4.05
2023-03-02T06:10:10.207Z,-4.03
2023-03-02T06:12:36.685Z,-3.97
2023-03-02T06:15:04.017Z,-3.96
2023-03-02T06:17:30.540Z,-3.92
2023-03-02T06:19:57.027Z,-3.90
2023-03-02T06:22:23.471Z,-3.84
2023-03-02T06:24:49.921Z,-3.80
2023-03-02T06:27:16.385Z,-3.81
2023-03-02T06:29:42.842Z,-3.83
2023-03-02T06:32:11.479Z,-3.82
2023-03-02T06:34:38.045Z,-3.78
2023-03-02T06:37:04.506Z,-3.72
2023-03-02T06:39:31.021Z,-3.68
2023-03-02T06:41:58.795Z,-3.66
2023-03-02T06:44:25.313Z,-3.64
2023-03-02T06:46:51.801Z,-3.61
2023-03-02T06:49:18.273Z,-3.58
2023-03-02T06:51:44.736Z,-3.55
2023-03-02T06:54:11.222Z,-3.51
2023-03-02T06:56:40.017Z,-3.49
2023-03-02T06:59:08.017Z,-3.45
2023-03-02T07:01:36.512Z,-3.42
2023-03-02T07:04:03.471Z,-3.37
2023-03-02T07:06:30.021Z,-3.36
2023-03-02T07:08:56.486Z,-3.38
2023-03-02T07:11:23.008Z,-3.38
2023-03-02T07:13:49.829Z,-3.34
2023-03-02T07:16:16.428Z,-3.28
2023-03-02T07:18:42.944Z,-3.22
2023-03-02T07:21:09.662Z,-3.17
2023-03-02T07:23:36.226Z,-3.11
2023-03-02T07:26:02.688Z,-3.08
2023-03-02T07:28:29.165Z,-2.87
2023-03-02T07:30:55.872Z,-2.40
2023-03-02T07:33:22.613Z,-1.69
2023-03-02T07:35:49.156Z,-0.61
2023-03-02T07:38:15.734Z,0.40
2023-03-02T07:40:42.559Z,1.67
2023-03-02T07:43:09.273Z,2.96
2023-03-02T07:45:35.816Z,4.31
2023-03-02T07:48:02.313Z,5.35
2023-03-02T07:50:28.857Z,6.18
2023-03-02T07:52:55.356Z,6.95
2023-03-02T07:55:21.925Z,7.60
2023-03-02T07:57:48.396Z,8.48
2023-03-02T08:00:15.162Z,9.32
2023-03-02T08:02:41.945Z,10.33
2023-03-02T08:05:08.800Z,11.32
2023-03-02T08:07:35.484Z,12.31
2023-03-02T08:10:02.106Z,12.98
2023-03-02T08:12:28.707Z,13.65
2023-03-02T08:14:55.306Z,14.30
2023-03-02T08:17:21.785Z,15.07
2023-03-02T08:19:48.304Z,15.84
2023-03-02T08:22:14.755Z,16.41
2023-03-02T08:24:41.979Z,17.05
2023-03-02T08:27:08.955Z,17.59
2023-03-02T08:29:35.434Z,18.05
2023-03-02T08:32:02.075Z,18.59
2023-03-02T08:34:28.670Z,19.01
2023-03-02T08:36:55.220Z,19.38
2023-03-02T08:39:24.598Z,19.76
2023-03-02T08:41:51.582Z,20.10
2023-03-02T08:44:18.231Z,20.22
2023-03-02T08:46:44.667Z,19.98
2023-03-02T08:49:11.119Z,18.85
2023-03-02T08:51:37.614Z,17.54
2023-03-02T08:54:04.210Z,16.45
2023-03-02T08:56:31.736Z,15.52
2023-03-02T08:58:59.380Z,14.63
2023-03-02T09:01:29.905Z,13.69
2023-03-02T09:03:57.619Z,12.85
2023-03-02T09:06:24.180Z,11.98
2023-03-02T09:08:50.815Z,11.16
2023-03-02T09:11:17.388Z,10.39
2023-03-02T09:13:43.912Z,9.79
2023-03-02T09:16:10.468Z,9.28
2023-03-02T09:18:36.954Z,8.87
2023-03-02T09:21:03.567Z,8.46
2023-03-02T09:23:30.353Z,8.16
2023-03-02T09:25:56.825Z,7.87
2023-03-02T09:28:23.289Z,7.68
2023-03-02T09:30:53.682Z,7.51
2023-03-02T09:33:20.333Z,7.37
2023-03-02T09:35:47.728Z,7.22
2023-03-02T09:38:17.106Z,7.13
2023-03-02T09:41:03.946Z,7.05
2023-03-02T09:43:36.652Z,7.02
2023-03-02T09:46:20.896Z,6.97
2023-03-02T09:49:07.652Z,6.88
2023-03-02T09:51:34.731Z,6.85
2023-03-02T09:54:04.705Z,6.82
2023-03-02T09:56:31.491Z,6.79
2023-03-02T09:59:00.117Z,6.81
2023-03-02T10:01:32.895Z,6.77
2023-03-02T10:04:06.081Z,6.75
2023-03-02T10:06:32.892Z,6.71
2023-03-02T10:08:59.724Z,6.72
2023-03-02T10:11:35.300Z,6.71
2023-03-02T10:14:15.605Z,6.77
2023-03-02T10:16:42.096Z,6.82
2023-03-02T10:19:13.965Z,6.80
2023-03-02T10:21:44.540Z,6.82
2023-03-02T10:24:11.087Z,6.83
2023-03-02T10:26:38.910Z,6.87
2023-03-02T10:29:11.625Z,6.86
2023-03-02T10:31:39.107Z,6.87
2023-03-02T10:34:13.904Z,6.88
2023-03-02T10:36:41.301Z,6.94
2023-03-02T10:39:10.385Z,6.99
2023-03-02T10:41:41.195Z,7.07
2023-03-02T10:44:13.900Z,7.15
2023-03-02T10:46:44.266Z,7.20
2023-03-02T10:49:29.601Z,7.24
2023-03-02T10:51:57.326Z,7.30
2023-03-02T10:54:34.791Z,7.37
2023-03-02T10:57:05.401Z,7.43
2023-03-02T10:59:33.672Z,7.48
2023-03-02T11:02:01.642Z,7.54
2023-03-02T11:04:28.431Z,7.59
2023-03-02T11:06:54.945Z,7.66
2023-03-02T11:09:21.529Z,7.69
2023-03-02T11:11:53.048Z,7.75
2023-03-02T11:14:19.614Z,7.81
2023-03-02T11:16:47.366Z,7.89
2023-03-02T11:19:24.686Z,7.90
2023-03-02T11:21:58.732Z,7.95
2023-03-02T11:24:39.567Z,7.99
2023-03-02T11:27:25.761Z,8.06
2023-03-02T11:29:59.336Z,8.10
2023-03-02T11:32:29.275Z,8.13
2023-03-02T11:35:00.741Z,8.16
2023-03-02T11:37:35.143Z,8.21
2023-03-02T11:40:06.841Z,8.27
2023-03-02T11:42:37.513Z,8.32
2023-03-02T11:45:08.947Z,8.30
2023-03-02T11:47:35.439Z,8.34
2023-03-02T11:50:05.267Z,8.37
2023-03-02T11:52:32.615Z,8.37
2023-03-02T11:55:06.687Z,8.32
2023-03-02T11:57:40.463Z,8.33
2023-03-02T12:00:11.846Z,8.29
2023-03-02T12:02:38.297Z,8.32
2023-03-02T12:05:05.802Z,8.34
2023-03-02T12:07:32.310Z,8.32
2023-03-02T12:09:58.722Z,8.24
2023-03-02T12:12:35.711Z,8.21
2023-03-02T12:15:02.238Z,8.19
2023-03-02T12:17:30.079Z,8.20
2023-03-02T12:20:08.916Z,8.18
2023-03-02T12:22:35.548Z,8.22
2023-03-02T12:25:04.013Z,8.23
2023-03-02T12:27:34.826Z,8.24
2023-03-02T12:30:23.785Z,8.23
2023-03-02T12:33:13.694Z,8.22
2023-03-02T12:35:40.195Z,8.23
2023-03-02T12:38:08.329Z,8.26
2023-03-02T12:40:38.025Z,8.26
2023-03-02T12:43:22.906Z,8.31
2023-03-02T12:45:58.596Z,8.34
2023-03-02T12:48:28.107Z,8.50
2023-03-02T12:50:56.248Z,8.64
2023-03-02T12:53:22.813Z,8.79
2023-03-02T12:55:49.384Z,8.85
2023-03-02T12:58:20.161Z,8.43
2023-03-02T13:00:53.914Z,8.88
2023-03-02T13:03:20.439Z,8.90
2023-03-02T13:05:49.880Z,8.88
2023-03-02T13:08:17.630Z,8.80
2023-03-02T13:10:48.300Z,8.75
2023-03-02T13:13:14.904Z,8.73
2023-03-02T13:15:51.238Z,8.69
2023-03-02T13:18:18.116Z,8.63
2023-03-02T13:20:44.929Z,8.67
2023-03-02T13:23:15.000Z,8.62
2023-03-02T13:25:52.202Z,8.57
2023-03-02T13:28:22.623Z,8.51
2023-03-02T13:30:51.132Z,8.46
2023-03-02T13:33:24.138Z,8.42
2023-03-02T13:35:50.630Z,8.41
2023-03-02T13:38:17.649Z,8.38
2023-03-02T13:40:48.570Z,8.34
2023-03-02T13:43:22.200Z,8.27
2023-03-02T13:46:15.108Z,8.20
2023-03-02T13:48:41.610Z,8.30
2023-03-02T13:51:17.950Z,8.40
2023-03-02T13:53:55.183Z,8.46
2023-03-02T13:59:49.719Z,8.18
2023-03-02T14:02:23.649Z,8.28
2023-03-02T14:04:50.236Z,8.27
2023-03-02T14:07:17.730Z,8.23
2023-03-02T14:12:34.337Z,8.07
2023-03-02T14:15:01.330Z,7.99
2023-03-02T14:17:27.884Z,7.89
2023-03-02T14:19:55.387Z,7.78
2023-03-02T14:22:22.305Z,7.67
2023-03-02T14:24:48.945Z,7.67
2023-03-02T14:27:16.151Z,7.60
2023-03-02T14:29:43.351Z,7.63
2023-03-02T14:32:10.545Z,7.60
2023-03-02T14:34:37.413Z,7.54
2023-03-02T14:37:04.871Z,7.46
2023-03-02T14:39:35.970Z,7.51
2023-03-02T14:42:05.616Z,7.41
2023-03-02T14:44:32.348Z,7.47
2023-03-02T14:46:59.207Z,7.43
2023-03-02T14:49:26.121Z,7.42
2023-03-02T14:51:55.844Z,7.47
2023-03-02T14:54:22.364Z,7.51
2023-03-02T14:56:50.460Z,7.48
2023-03-02T14:59:17.706Z,7.46
2023-03-02T15:01:47.282Z,7.48
2023-03-02T15:04:13.848Z,7.49
2023-03-02T15:06:40.826Z,7.46
2023-03-02T15:09:08.158Z,7.47
2023-03-02T15:11:35.159Z,7.55
2023-03-02T15:14:01.912Z,7.56
2023-03-02T15:16:28.620Z,7.58
2023-03-02T15:18:56.740Z,7.57
2023-03-02T15:21:24.380Z,7.51
2023-03-02T15:23:51.116Z,7.49
2023-03-02T15:26:17.687Z,7.52
2023-03-02T15:28:45.737Z,7.46
2023-03-02T15:31:14.315Z,7.40
2023-03-02T15:33:41.445Z,7.29
2023-03-02T15:36:08.089Z,7.26
2023-03-02T15:38:35.781Z,7.22
2023-03-02T15:41:12.658Z,7.19
2023-03-02T15:43:39.282Z,7.12
2023-03-02T15:46:06.167Z,7.07
2023-03-02T15:48:32.783Z,7.07
2023-03-02T15:50:59.822Z,7.02
2023-03-02T15:53:26.597Z,6.97
2023-03-02T15:55:53.146Z,6.87
2023-03-02T15:58:19.682Z,6.80
2023-03-02T16:00:46.183Z,6.69
2023-03-02T16:03:14.693Z,6.60
2023-03-02T16:05:41.425Z,6.49
2023-03-02T16:08:07.937Z,6.37
2023-03-02T16:10:36.111Z,6.25
2023-03-02T16:13:03.353Z,6.09
2023-03-02T16:15:30.146Z,5.91
2023-03-02T16:17:56.773Z,5.71
2023-03-02T16:20:23.405Z,5.51
2023-03-02T16:22:49.896Z,5.36
2023-03-02T16:25:16.459Z,5.20
2023-03-02T16:27:47.428Z,5.02
2023-03-02T16:30:15.124Z,4.86
2023-03-02T16:32:41.636Z,4.70
2023-03-02T16:35:08.735Z,4.55
2023-03-02T16:37:35.252Z,4.44
2023-03-02T16:40:01.895Z,4.31
2023-03-02T16:42:30.382Z,4.17
2023-03-02T16:44:56.922Z,4.02
2023-03-02T16:47:23.547Z,3.90
2023-03-02T16:49:50.052Z,3.77
2023-03-02T16:52:17.646Z,3.67
2023-03-02T16:54:44.964Z,3.57
2023-03-02T16:57:11.445Z,3.45
2023-03-02T16:59:37.918Z,3.35
2023-03-02T17:02:04.448Z,3.12
2023-03-02T17:04:34.789Z,2.81
2023-03-02T17:07:01.673Z,2.56
2023-03-02T17:09:28.419Z,2.36
2023-03-02T17:11:55.210Z,2.21
2023-03-02T17:14:21.721Z,2.14
2023-03-02T17:16:48.348Z,2.10
2023-03-02T17:19:14.779Z,2.04
2023-03-02T17:21:41.279Z,1.98
2023-03-02T17:24:07.835Z,1.94
2023-03-02T17:26:34.386Z,1.85
2023-03-02T17:29:01.026Z,1.76
2023-03-02T17:31:27.532Z,1.72
2023-03-02T17:33:54.090Z,1.66
2023-03-02T17:36:20.570Z,1.60
2023-03-02T17:38:47.530Z,1.54
2023-03-02T17:41:14.030Z,1.50
2023-03-02T17:43:40.887Z,1.49
2023-03-02T17:46:08.404Z,1.50
2023-03-02T17:48:34.953Z,1.47
2023-03-02T17:51:01.469Z,1.44
2023-03-02T17:53:28.378Z,1.47
2023-03-02T17:55:54.916Z,1.46
2023-03-02T17:58:21.472Z,1.45
2023-03-02T18:00:47.983Z,1.39
2023-03-02T18:03:14.546Z,1.33
2023-03-02T18:05:41.025Z,1.29
2023-03-02T18:08:07.513Z,1.23
2023-03-02T18:10:34.030Z,1.16
2023-03-02T18:13:00.529Z,1.07
2023-03-02T18:15:29.155Z,0.92
2023-03-02T18:17:55.644Z,0.81
2023-03-02T18:20:22.173Z,0.74
2023-03-02T18:22:48.712Z,0.68
2023-03-02T18:25:15.308Z,0.63
2023-03-02T18:27:41.829Z,0.59
2023-03-02T18:30:08.724Z,0.53
2023-03-02T18:32:35.533Z,0.47
2023-03-02T18:35:02.006Z,0.43
2023-03-02T18:37:28.571Z,0.34
2023-03-02T18:39:55.244Z,0.29
2023-03-02T18:42:22.567Z,0.28
2023-03-02T18:44:49.125Z,0.28
2023-03-02T18:47:16.119Z,0.32
2023-03-02T18:49:42.793Z,0.30
2023-03-02T18:52:09.987Z,0.23
2023-03-02T18:54:36.463Z,0.13
2023-03-02T18:57:03.654Z,0.09
2023-03-02T18:59:30.269Z,0.02
2023-03-02T19:01:57.576Z,0.00
2023-03-02T19:04:26.569Z,0.02
2023-03-02T19:06:54.342Z,0.03
2023-03-02T19:09:21.521Z,0.03
2023-03-02T19:11:48.081Z,0.06
2023-03-02T19:14:14.831Z,0.08
2023-03-02T19:16:41.334Z,0.02
2023-03-02T19:19:07.866Z,-0.03
2023-03-02T19:21:34.407Z,-0.07
2023-03-02T19:24:01.862Z,-0.11
2023-03-02T19:26:28.470Z,-0.13
2023-03-02T19:28:55.596Z,-0.13
2023-03-02T19:31:22.141Z,-0.14
2023-03-02T19:37:17.615Z,-0.22
2023-03-02T19:39:44.150Z,-0.26
2023-03-02T19:42:10.863Z,-0.30
2023-03-02T19:44:37.344Z,-0.34
2023-03-02T19:47:04.641Z,-0.41
2023-03-02T19:49:31.389Z,-0.46
2023-03-02T19:51:59.095Z,-0.47
2023-03-02T19:54:26.019Z,-0.47
2023-03-02T19:56:53.995Z,-0.50
2023-03-02T19:59:22.033Z,-0.50
2023-03-02T20:01:49.573Z,-0.53
2023-03-02T20:04:16.431Z,-0.52
2023-03-02T20:06:42.928Z,-0.52
2023-03-02T20:09:09.722Z,-0.51
2023-03-02T20:11:36.312Z,-0.49
2023-03-02T20:14:02.921Z,-0.46
2023-03-02T20:16:30.159Z,-0.45
2023-03-02T20:18:58.220Z,-0.44
2023-03-02T20:21:27.560Z,-0.46
2023-03-02T20:23:54.478Z,-0.49
2023-03-02T20:26:21.327Z,-0.52
2023-03-02T20:28:48.056Z,-0.58
2023-03-02T20:31:14.827Z,-0.62
2023-03-02T20:33:46.596Z,-0.66
2023-03-02T20:36:13.578Z,-0.71
2023-03-02T20:38:41.806Z,-0.74
2023-03-02T20:41:08.287Z,-0.76
2023-03-02T20:43:34.852Z,-0.81
2023-03-02T20:46:01.702Z,-0.84
2023-03-02T20:48:28.350Z,-0.88
2023-03-02T20:50:54.942Z,-0.88
2023-03-02T20:53:21.554Z,-0.90
2023-03-02T20:55:48.251Z,-0.88
2023-03-02T20:58:14.685Z,-0.89
2023-03-02T21:00:41.494Z,-0.97
2023-03-02T21:03:08.494Z,-144.82
2023-03-02T21:05:35.394Z,-144.82
2023-03-02T21:08:02.065Z,-144.82
2023-03-02T21:10:32.562Z,-144.82
2023-03-02T21:12:59.168Z,-144.82
2023-03-02T21:15:27.204Z,-144.82
2023-03-02T21:17:57.276Z,-144.82
2023-03-02T21:20:24.133Z,-144.82
2023-03-02T21:22:50.692Z,-144.82
2023-03-02T21:25:17.423Z,-144.82
2023-03-02T21:27:44.265Z,-144.82
2023-03-02T21:30:14.542Z,-144.82
2023-03-02T21:32:45.704Z,-144.82
2023-03-02T21:35:15.821Z,-144.82
2023-03-02T21:37:42.477Z,-144.82
2023-03-02T21:40:31.354Z,-144.82
2023-03-02T21:43:00.608Z,-144.82
2023-03-02T21:45:27.186Z,-144.82
2023-03-02T21:47:53.681Z,-144.82
2023-03-02T21:50:24.413Z,-144.82
2023-03-02T21:52:50.890Z,-144.82
2023-03-02T21:55:17.618Z,-144.82
2023-03-02T21:57:44.133Z,-144.82
2023-03-02T22:00:12.511Z,-144.82
2023-03-02T22:02:39.072Z,-144.82
2023-03-02T22:05:05.795Z,-144.82
2023-03-02T22:07:32.310Z,-144.82
2023-03-02T22:09:59.026Z,-144.82
2023-03-02T22:12:25.482Z,-144.82
2023-03-02T22:14:51.941Z,-144.82
2023-03-02T22:17:19.195Z,-144.82
2023-03-02T22:19:45.750Z,-144.82
2023-03-02T22:22:26.013Z,-144.82
2023-03-02T22:24:52.879Z,-144.82
2023-03-02T22:27:22.059Z,-144.82
2023-03-02T22:29:48.772Z,-144.82
2023-03-02T22:32:17.439Z,-144.82
2023-03-02T22:34:44.359Z,-144.82
2023-03-02T22:37:11.915Z,-144.82
2023-03-02T22:39:40.514Z,-144.82
2023-03-02T22:42:13.587Z,-144.82
2023-03-02T22:44:40.101Z,-144.82
2023-03-02T22:47:12.483Z,-144.82
2023-03-02T22:49:38.976Z,-144.82
2023-03-02T22:52:11.486Z,-144.82
2023-03-02T22:54:37.974Z,-144.82
2023-03-02T22:57:08.316Z,-144.82
2023-03-02T22:59:36.095Z,-144.82
2023-03-02T23:02:02.841Z,-144.82
2023-03-02T23:04:35.309Z,-144.82
2023-03-02T23:07:02.857Z,-144.82
2023-03-02T23:09:30.516Z,-144.82
2023-03-02T23:11:57.876Z,-144.82
2023-03-02T23:14:45.100Z,-144.82
2023-03-02T23:17:12.371Z,-144.82
2023-03-02T23:19:38.807Z,-144.82
2023-03-02T23:22:05.306Z,-144.82
2023-03-02T23:24:31.770Z,-144.82
2023-03-02T23:26:58.249Z,-144.82
2023-03-02T23:29:24.723Z,-144.82
2023-03-02T23:31:51.250Z,-144.82
2023-03-02T23:34:17.791Z,-144.82
2023-03-02T23:36:44.267Z,-144.82
2023-03-02T23:39:10.779Z,-144.82
2023-03-02T23:41:37.448Z,-144.82
2023-03-02T23:44:05.183Z,-144.82
2023-03-02T23:46:31.719Z,-144.82
2023-03-02T23:48:58.249Z,-144.82
2023-03-02T23:51:25.554Z,-144.82
2023-03-02T23:53:55.467Z,-144.82
2023-03-02T23:56:22.030Z,-144.82
2023-03-02T23:58:57.475Z,-144.82
